Terminal Aerodrome Forecast
Issued by NWS

Home | Current Version | Previous Version | Graphics & Text | Print | Product List | Glossary On
Versions: 1 2 3 4 5 6 7 8 9 10 11 12 13 14 15 16 17 18 19 20 21 22 23 24 25 26
000
FTUS41 KCLE 261100
TAFFDY
TAF
KFDY 261126Z 2612/2712 18005KT P6SM SCT035 BKN250
     FM261500 23008KT P6SM VCTS SCT035CB BKN200
      TEMPO 2621/2624 2SM TSRA BR BKN025CB OVC035
     FM270100 29005KT P6SM SCT150 BKN250=

USA.gov is the U.S. government's official web portal to all federal, state and local government web resources and services.